createdAt,value
2018-10-18T00:00:47.550Z,15.87
2018-10-18T00:03:15.998Z,15.73
2018-10-18T00:05:44.304Z,15.37
2018-10-18T00:08:12.774Z,16.23
2018-10-18T00:10:41.410Z,15.47
2018-10-18T00:13:09.688Z,15.60
2018-10-18T00:15:38.115Z,14.70
2018-10-18T00:18:06.984Z,15.20
2018-10-18T00:20:35.394Z,14.60
2018-10-18T00:23:03.969Z,16.23
2018-10-18T00:25:32.355Z,16.47
2018-10-18T00:28:00.795Z,15.70
2018-10-18T00:30:29.131Z,16.43
2018-10-18T00:32:57.509Z,15.27
2018-10-18T00:35:25.801Z,14.77
2018-10-18T00:37:54.376Z,17.03
2018-10-18T00:40:22.705Z,15.43
2018-10-18T00:42:51.209Z,14.97
2018-10-18T00:45:19.545Z,14.57
2018-10-18T00:47:48.961Z,13.47
2018-10-18T00:50:17.406Z,13.63
2018-10-18T00:52:45.697Z,14.57
2018-10-18T00:55:14.113Z,14.80
2018-10-18T00:57:42.455Z,12.43
2018-10-18T01:00:11.836Z,12.27
2018-10-18T01:02:40.111Z,11.63
2018-10-18T01:05:08.583Z,13.80
2018-10-18T01:07:36.977Z,13.50
2018-10-18T01:10:05.289Z,12.70
2018-10-18T01:12:33.843Z,13.57
2018-10-18T01:15:02.089Z,14.07
2018-10-18T01:17:31.005Z,14.63
2018-10-18T01:19:59.345Z,14.07
2018-10-18T01:22:27.737Z,13.37
2018-10-18T01:24:56.092Z,13.77
2018-10-18T01:27:24.555Z,13.13
2018-10-18T01:29:53.032Z,13.37
2018-10-18T01:32:21.429Z,14.60
2018-10-18T01:34:49.801Z,14.07
2018-10-18T01:37:18.117Z,14.17
2018-10-18T01:39:46.875Z,13.87
2018-10-18T01:42:15.387Z,14.47
2018-10-18T01:44:43.840Z,14.57
2018-10-18T01:47:12.217Z,12.80
2018-10-18T01:49:40.520Z,13.93
2018-10-18T01:52:08.951Z,14.80
2018-10-18T01:54:37.244Z,13.53
2018-10-18T01:57:06.233Z,12.23
2018-10-18T01:59:34.821Z,12.37
2018-10-18T02:02:03.205Z,12.37
2018-10-18T02:04:31.547Z,12.10
2018-10-18T02:06:59.915Z,12.60
2018-10-18T02:09:28.221Z,13.30
2018-10-18T02:11:57.460Z,13.30
2018-10-18T02:14:25.825Z,12.67
2018-10-18T02:16:54.115Z,13.53
2018-10-18T02:19:22.663Z,13.10
2018-10-18T02:21:51.091Z,12.50
2018-10-18T02:24:19.504Z,12.20
2018-10-18T02:26:47.808Z,12.53
2018-10-18T02:29:16.503Z,12.80
2018-10-18T02:31:44.857Z,12.30
2018-10-18T02:34:13.320Z,14.17
2018-10-18T02:36:41.765Z,14.03
2018-10-18T02:39:10.547Z,13.77
2018-10-18T02:41:39.171Z,13.73
2018-10-18T02:44:07.665Z,13.00
2018-10-18T02:46:36.056Z,13.17
2018-10-18T02:49:04.642Z,11.97
2018-10-18T02:51:32.963Z,12.50
2018-10-18T02:54:01.360Z,12.10
2018-10-18T02:56:29.673Z,12.10
2018-10-18T02:58:58.084Z,12.03
2018-10-18T03:01:26.385Z,13.20
2018-10-18T03:03:54.710Z,12.87
2018-10-18T03:06:23.174Z,14.03
2018-10-18T03:08:51.662Z,12.70
2018-10-18T03:11:20.191Z,12.70
2018-10-18T03:13:48.646Z,11.87
2018-10-18T03:16:16.966Z,10.90
2018-10-18T03:18:45.234Z,10.30
2018-10-18T03:21:13.586Z,11.13
2018-10-18T03:23:41.882Z,10.47
2018-10-18T03:26:10.330Z,11.50
2018-10-18T03:28:38.670Z,11.13
2018-10-18T03:31:06.975Z,11.57
2018-10-18T03:33:35.355Z,12.00
2018-10-18T03:36:03.768Z,11.07
2018-10-18T03:38:32.158Z,12.27
2018-10-18T03:41:00.442Z,11.53
2018-10-18T03:43:28.932Z,11.90
2018-10-18T03:45:57.338Z,11.93
2018-10-18T03:48:25.721Z,11.53
2018-10-18T03:50:54.097Z,12.17
2018-10-18T03:53:22.444Z,12.10
2018-10-18T03:55:50.749Z,12.00
2018-10-18T03:58:19.097Z,11.87
2018-10-18T04:00:47.686Z,11.43
2018-10-18T04:03:16.096Z,10.77
2018-10-18T04:05:44.498Z,11.53
2018-10-18T04:08:12.778Z,11.50
2018-10-18T04:10:41.057Z,11.20
2018-10-18T04:13:09.484Z,11.13
2018-10-18T04:15:37.785Z,14.27
2018-10-18T04:18:06.336Z,11.87
2018-10-18T04:20:34.562Z,13.10
2018-10-18T04:23:02.946Z,11.87
2018-10-18T04:25:31.404Z,13.60
2018-10-18T04:27:59.807Z,11.70
2018-10-18T04:30:28.259Z,12.40
2018-10-18T04:32:56.617Z,11.60
2018-10-18T04:35:24.902Z,11.70
2018-10-18T04:37:53.188Z,11.83
2018-10-18T04:40:21.576Z,11.17
2018-10-18T04:42:49.887Z,12.77
2018-10-18T04:45:18.207Z,13.27
2018-10-18T04:47:46.589Z,11.93
2018-10-18T04:50:14.805Z,12.70
2018-10-18T04:52:43.088Z,13.70
2018-10-18T04:55:11.377Z,13.30
2018-10-18T04:57:39.778Z,12.97
2018-10-18T05:00:08.265Z,13.30
2018-10-18T05:02:36.721Z,13.30
2018-10-18T05:05:16.255Z,12.13
2018-10-18T05:07:44.590Z,12.33
2018-10-18T05:10:13.030Z,12.93
2018-10-18T05:12:41.463Z,12.27
2018-10-18T05:15:09.904Z,11.83
2018-10-18T05:17:38.369Z,13.90
2018-10-18T05:20:07.025Z,13.23
2018-10-18T05:22:35.351Z,12.83
2018-10-18T05:25:03.911Z,11.87
2018-10-18T05:27:32.094Z,12.97
2018-10-18T05:30:00.510Z,12.27
2018-10-18T05:32:28.958Z,12.60
2018-10-18T05:34:57.382Z,13.80
2018-10-18T05:37:25.745Z,14.67
2018-10-18T05:39:54.030Z,14.03
2018-10-18T05:42:22.442Z,13.80
2018-10-18T05:44:51.214Z,13.23
2018-10-18T05:47:19.740Z,15.40
2018-10-18T05:49:48.066Z,15.67
2018-10-18T05:52:16.422Z,15.90
2018-10-18T05:54:44.910Z,15.53
2018-10-18T05:57:13.268Z,16.60
2018-10-18T05:59:41.591Z,16.30
2018-10-18T06:02:10.182Z,16.50
2018-10-18T06:04:38.555Z,16.37
2018-10-18T06:07:06.979Z,14.67
2018-10-18T06:09:35.521Z,14.47
2018-10-18T06:12:04.139Z,13.67
2018-10-18T06:14:32.709Z,14.97
2018-10-18T06:17:01.039Z,14.23
2018-10-18T06:19:29.441Z,12.80
2018-10-18T06:21:57.763Z,14.20
2018-10-18T06:24:26.164Z,13.57
2018-10-18T06:26:55.065Z,14.00
2018-10-18T06:29:23.383Z,14.73
2018-10-18T06:31:51.726Z,14.87
2018-10-18T06:34:20.219Z,13.93
2018-10-18T06:36:48.600Z,13.43
2018-10-18T06:39:17.105Z,12.33
2018-10-18T06:41:45.454Z,12.50
2018-10-18T06:44:13.878Z,13.07
2018-10-18T06:46:42.528Z,12.83
2018-10-18T06:49:10.940Z,12.40
2018-10-18T06:51:39.266Z,13.27
2018-10-18T06:54:07.583Z,13.70
2018-10-18T06:56:35.990Z,12.57
2018-10-18T06:59:04.429Z,14.07
2018-10-18T07:01:32.770Z,14.73
2018-10-18T07:04:01.195Z,16.23
2018-10-18T07:06:29.526Z,16.77
2018-10-18T07:08:57.944Z,15.47
2018-10-18T07:11:26.307Z,14.83
2018-10-18T07:13:54.658Z,14.87
2018-10-18T07:16:23.044Z,13.77
2018-10-18T07:18:51.411Z,14.30
2018-10-18T07:21:19.734Z,14.27
2018-10-18T07:23:48.186Z,14.77
2018-10-18T07:26:16.566Z,14.93
2018-10-18T07:28:44.922Z,15.07
2018-10-18T07:31:13.318Z,15.70
2018-10-18T07:33:41.718Z,15.03
2018-10-18T07:36:10.088Z,15.80
2018-10-18T07:38:38.406Z,16.43
2018-10-18T07:41:06.865Z,15.53
2018-10-18T07:43:35.181Z,14.07
2018-10-18T07:46:03.803Z,15.93
2018-10-18T07:48:32.231Z,15.27
2018-10-18T07:51:00.645Z,14.70
2018-10-18T07:53:29.039Z,14.47
2018-10-18T07:55:57.401Z,15.93
2018-10-18T07:58:25.873Z,14.27
2018-10-18T08:00:54.308Z,15.40
2018-10-18T08:03:22.761Z,14.60
2018-10-18T08:05:51.120Z,14.60
2018-10-18T08:08:19.461Z,15.33
2018-10-18T08:10:47.968Z,15.90
2018-10-18T08:13:16.397Z,15.37
2018-10-18T08:15:44.694Z,14.97
2018-10-18T08:18:13.040Z,15.67
2018-10-18T08:20:41.367Z,15.50
2018-10-18T08:23:09.843Z,14.93
2018-10-18T08:25:38.271Z,15.97
2018-10-18T08:28:06.605Z,15.97
2018-10-18T08:30:34.926Z,15.77
2018-10-18T08:33:03.370Z,15.40
2018-10-18T08:35:31.793Z,16.17
2018-10-18T08:38:00.288Z,16.43
2018-10-18T08:40:28.480Z,15.43
2018-10-18T08:42:56.858Z,15.00
2018-10-18T08:45:25.188Z,16.70
2018-10-18T08:47:53.753Z,15.97
2018-10-18T08:50:22.177Z,15.20
2018-10-18T08:52:50.708Z,15.90
2018-10-18T08:55:19.155Z,14.80
2018-10-18T08:57:47.477Z,15.33
2018-10-18T09:00:15.949Z,16.50
2018-10-18T09:02:44.429Z,16.07
2018-10-18T09:05:12.830Z,14.70
2018-10-18T09:07:41.194Z,16.33
2018-10-18T09:10:09.842Z,15.07
2018-10-18T09:12:38.170Z,15.53
2018-10-18T09:15:07.910Z,15.23
2018-10-18T09:17:36.527Z,14.97
2018-10-18T09:20:05.577Z,15.50
2018-10-18T09:22:33.920Z,15.23
2018-10-18T09:25:02.388Z,15.40
2018-10-18T09:27:30.678Z,14.93
2018-10-18T09:29:58.992Z,15.30
2018-10-18T09:32:27.378Z,13.50
2018-10-18T09:34:55.825Z,15.33
2018-10-18T09:37:24.338Z,14.10
2018-10-18T09:39:52.720Z,15.00
2018-10-18T09:42:21.046Z,15.00
2018-10-18T09:44:49.464Z,14.20
2018-10-18T09:47:17.910Z,13.43
2018-10-18T09:49:46.290Z,14.50
2018-10-18T09:52:14.677Z,14.80
2018-10-18T09:54:43.090Z,13.97
2018-10-18T09:57:11.412Z,14.43
2018-10-18T09:59:39.854Z,15.27
2018-10-18T10:02:13.666Z,15.23
2018-10-18T10:04:42.064Z,15.40
2018-10-18T10:07:10.482Z,16.07
2018-10-18T10:09:39.826Z,26.30
2018-10-18T10:12:08.841Z,16.10
2018-10-18T10:14:37.246Z,25.87
2018-10-18T10:17:06.318Z,19.33
2018-10-18T10:19:34.709Z,21.77
2018-10-18T10:22:03.132Z,17.77
2018-10-18T10:24:31.734Z,17.67
2018-10-18T10:27:00.091Z,17.87
2018-10-18T10:29:28.547Z,19.93
2018-10-18T10:31:57.005Z,19.13
2018-10-18T10:34:25.486Z,20.77
2018-10-18T10:36:53.927Z,20.10
2018-10-18T10:39:22.304Z,20.27
2018-10-18T10:41:50.649Z,23.13
2018-10-18T10:44:19.124Z,24.20
2018-10-18T10:46:47.379Z,25.63
2018-10-18T10:49:15.786Z,23.87
2018-10-18T10:51:44.141Z,22.83
2018-10-18T10:54:12.573Z,22.40
2018-10-18T10:56:40.888Z,23.70
2018-10-18T10:59:15.304Z,23.80
2018-10-18T11:01:43.642Z,23.03
2018-10-18T11:04:12.254Z,22.80
2018-10-18T11:06:40.696Z,22.57
2018-10-18T11:09:10.713Z,22.83
2018-10-18T11:11:39.006Z,22.23
2018-10-18T11:14:07.562Z,22.23
2018-10-18T11:16:35.887Z,23.23
2018-10-18T11:19:04.387Z,30.40
2018-10-18T11:21:32.801Z,28.50
2018-10-18T11:24:01.165Z,33.70
2018-10-18T11:26:29.543Z,24.27
2018-10-18T11:28:57.954Z,22.77
2018-10-18T11:31:26.289Z,23.10
2018-10-18T11:33:54.674Z,27.87
2018-10-18T11:36:23.165Z,26.73
2018-10-18T11:38:51.615Z,22.73
2018-10-18T11:41:20.007Z,26.23
2018-10-18T11:43:48.427Z,27.43
2018-10-18T11:46:16.747Z,22.33
2018-10-18T11:48:45.169Z,21.37
2018-10-18T11:51:13.719Z,22.30
2018-10-18T11:53:42.159Z,21.40
2018-10-18T11:56:10.609Z,24.17
2018-10-18T11:58:38.885Z,23.03
2018-10-18T12:01:07.528Z,24.53
2018-10-18T12:03:35.968Z,24.47
2018-10-18T12:06:04.379Z,25.43
2018-10-18T12:08:32.708Z,24.53
2018-10-18T12:11:01.279Z,22.23
2018-10-18T12:13:29.845Z,32.77
2018-10-18T12:15:58.464Z,30.50
2018-10-18T12:18:29.456Z,29.23
2018-10-18T12:20:57.910Z,26.80
2018-10-18T12:23:26.345Z,30.00
2018-10-18T12:25:54.682Z,29.50
2018-10-18T12:28:23.198Z,36.30
2018-10-18T12:30:51.577Z,33.60
2018-10-18T12:33:20.188Z,24.47
2018-10-18T12:35:49.086Z,24.30
2018-10-18T12:38:17.824Z,20.93
2018-10-18T12:40:46.310Z,24.93
2018-10-18T12:43:14.755Z,25.13
2018-10-18T12:45:43.838Z,41.10
2018-10-18T12:48:12.330Z,26.43
2018-10-18T12:50:40.754Z,34.77
2018-10-18T12:53:09.311Z,25.97
2018-10-18T12:55:37.707Z,24.93
2018-10-18T12:58:06.486Z,25.97
2018-10-18T13:00:34.879Z,28.07
2018-10-18T13:03:03.289Z,26.40
2018-10-18T13:05:31.709Z,43.57
2018-10-18T13:08:00.188Z,29.20
2018-10-18T13:10:28.525Z,24.83
2018-10-18T13:12:58.038Z,30.63
2018-10-18T13:15:26.398Z,25.13
2018-10-18T13:17:54.784Z,24.87
2018-10-18T13:20:23.314Z,32.03
2018-10-18T13:22:51.649Z,35.03
2018-10-18T13:25:20.069Z,27.90
2018-10-18T13:27:48.455Z,27.50
2018-10-18T13:30:16.907Z,26.63
2018-10-18T13:32:45.230Z,24.57
2018-10-18T13:35:13.919Z,25.60
2018-10-18T13:37:42.248Z,25.97
2018-10-18T13:40:10.594Z,27.67
2018-10-18T13:42:38.934Z,26.40
2018-10-18T13:45:07.898Z,25.70
2018-10-18T13:47:36.492Z,25.87
2018-10-18T13:50:05.372Z,25.10
2018-10-18T13:52:33.803Z,19.70
2018-10-18T13:55:02.179Z,30.97
2018-10-18T13:57:30.617Z,25.03
2018-10-18T14:00:24.395Z,25.30
2018-10-18T14:02:53.623Z,26.00
2018-10-18T14:05:22.292Z,24.00
2018-10-18T14:07:51.947Z,21.87
2018-10-18T14:10:20.507Z,22.37
2018-10-18T14:12:54.436Z,25.87
2018-10-18T14:15:22.802Z,25.43
2018-10-18T14:17:51.220Z,27.70
2018-10-18T14:20:19.639Z,25.07
2018-10-18T14:22:47.960Z,26.73
2018-10-18T14:25:16.366Z,26.67
2018-10-18T14:27:44.802Z,24.57
2018-10-18T14:30:13.816Z,32.20
2018-10-18T14:32:42.172Z,29.33
2018-10-18T14:35:12.143Z,29.57
2018-10-18T14:37:40.953Z,30.73
2018-10-18T14:40:10.795Z,27.60
2018-10-18T14:42:39.272Z,31.10
2018-10-18T14:45:08.727Z,30.50
2018-10-18T14:47:37.002Z,39.20
2018-10-18T14:50:06.982Z,34.50
2018-10-18T14:52:35.704Z,29.83
2018-10-18T14:55:04.146Z,27.97
2018-10-18T14:57:32.498Z,27.13
2018-10-18T15:00:00.893Z,29.40
2018-10-18T15:02:29.515Z,30.13
2018-10-18T15:04:58.379Z,28.80
2018-10-18T15:07:26.859Z,42.40
2018-10-18T15:09:55.266Z,28.00
2018-10-18T15:12:23.682Z,28.63
2018-10-18T15:14:52.094Z,28.03
2018-10-18T15:17:20.469Z,28.30
2018-10-18T15:19:48.777Z,28.23
2018-10-18T15:22:17.620Z,28.03
2018-10-18T15:24:45.954Z,28.80
2018-10-18T15:27:14.377Z,27.70
2018-10-18T15:29:43.054Z,27.33
2018-10-18T15:32:11.829Z,26.77
2018-10-18T15:34:40.034Z,27.07
2018-10-18T15:37:08.536Z,26.77
2018-10-18T15:39:36.952Z,27.23
2018-10-18T15:42:05.976Z,25.63
2018-10-18T15:44:34.343Z,27.73
2018-10-18T15:47:02.799Z,26.60
2018-10-18T15:49:31.099Z,26.23
2018-10-18T15:51:59.660Z,26.50
2018-10-18T15:54:28.431Z,25.90
2018-10-18T15:56:56.750Z,26.30
2018-10-18T15:59:25.441Z,24.87
2018-10-18T16:01:53.829Z,27.17
2018-10-18T16:04:22.185Z,26.37
2018-10-18T16:06:50.607Z,26.30
2018-10-18T16:09:19.009Z,27.40
2018-10-18T16:11:47.469Z,26.47
2018-10-18T16:14:15.862Z,25.10
2018-10-18T16:16:44.165Z,26.13
2018-10-18T16:19:12.570Z,25.43
2018-10-18T16:21:41.025Z,26.37
2018-10-18T16:24:09.460Z,25.30
2018-10-18T16:26:37.884Z,26.30
2018-10-18T16:29:06.543Z,25.17
2018-10-18T16:31:34.977Z,26.50
2018-10-18T16:34:03.525Z,24.63
2018-10-18T16:36:31.979Z,23.33
2018-10-18T16:39:00.444Z,24.13
2018-10-18T16:41:28.982Z,23.20
2018-10-18T16:43:57.304Z,23.83
2018-10-18T16:46:25.628Z,24.20
2018-10-18T16:48:53.966Z,24.63
2018-10-18T16:51:22.338Z,24.67
2018-10-18T16:53:50.704Z,23.43
2018-10-18T16:56:19.126Z,25.47
2018-10-18T16:58:47.456Z,24.93
2018-10-18T17:01:15.828Z,23.77
2018-10-18T17:03:44.302Z,25.33
2018-10-18T17:06:12.836Z,25.47
2018-10-18T17:08:41.251Z,23.50
2018-10-18T17:11:09.762Z,24.47
2018-10-18T17:13:38.238Z,24.57
2018-10-18T17:16:07.091Z,24.03
2018-10-18T17:18:35.415Z,25.47
2018-10-18T17:21:03.951Z,22.63
2018-10-18T17:23:32.393Z,22.73
2018-10-18T17:26:00.744Z,22.80
2018-10-18T17:28:29.115Z,20.43
2018-10-18T17:30:57.554Z,20.97
2018-10-18T17:33:25.971Z,20.07
2018-10-18T17:35:54.384Z,20.80
2018-10-18T17:38:22.794Z,20.13
2018-10-18T17:40:51.396Z,19.57
2018-10-18T17:43:19.718Z,19.87
2018-10-18T17:45:48.197Z,19.40
2018-10-18T17:48:16.902Z,20.50
2018-10-18T17:50:45.300Z,19.97
2018-10-18T17:53:13.677Z,19.70
2018-10-18T17:55:42.019Z,19.80
2018-10-18T17:58:10.587Z,19.20
2018-10-18T18:00:38.956Z,19.23
2018-10-18T18:03:07.336Z,20.30
2018-10-18T18:05:35.750Z,18.93
2018-10-18T18:08:04.176Z,18.47
2018-10-18T18:10:32.574Z,18.50
2018-10-18T18:13:00.973Z,19.23
2018-10-18T18:15:29.332Z,19.53
2018-10-18T18:17:57.711Z,18.80
2018-10-18T18:20:26.097Z,19.37
2018-10-18T18:22:54.529Z,18.03
2018-10-18T18:25:22.849Z,18.20
2018-10-18T18:27:51.237Z,19.23
2018-10-18T18:30:19.669Z,18.03
2018-10-18T18:32:48.175Z,18.70
2018-10-18T18:35:16.539Z,17.50
2018-10-18T18:37:44.954Z,20.37
2018-10-18T18:40:13.293Z,19.17
2018-10-18T18:42:41.816Z,19.83
2018-10-18T18:45:15.577Z,20.30
2018-10-18T18:47:43.919Z,25.17
2018-10-18T18:50:12.499Z,27.30
2018-10-18T18:52:40.869Z,30.73
2018-10-18T18:55:10.142Z,28.37
2018-10-18T18:57:39.774Z,27.30
2018-10-18T19:00:09.654Z,25.47
2018-10-18T19:02:38.390Z,23.87
2018-10-18T19:05:07.699Z,25.67
2018-10-18T19:07:36.272Z,23.50
2018-10-18T19:10:05.110Z,22.67
2018-10-18T19:12:33.494Z,23.43
2018-10-18T19:15:01.929Z,23.73
2018-10-18T19:17:30.262Z,22.83
2018-10-18T19:19:58.750Z,21.43
2018-10-18T19:22:27.255Z,21.83
2018-10-18T19:24:55.807Z,22.13
2018-10-18T19:27:24.134Z,24.93
2018-10-18T19:29:52.651Z,23.30
2018-10-18T19:32:21.082Z,22.77
2018-10-18T19:34:49.422Z,23.03
2018-10-18T19:37:17.759Z,23.03
2018-10-18T19:39:46.451Z,22.47
2018-10-18T19:42:15.008Z,22.27
2018-10-18T19:44:43.441Z,22.53
2018-10-18T19:47:13.001Z,24.23
2018-10-18T19:49:41.714Z,25.17
2018-10-18T19:52:10.311Z,25.77
2018-10-18T19:54:39.946Z,26.13
2018-10-18T19:57:08.272Z,26.40
2018-10-18T19:59:36.862Z,26.70
2018-10-18T20:02:05.710Z,26.47
2018-10-18T20:04:34.015Z,25.60
2018-10-18T20:07:02.422Z,25.97
2018-10-18T20:09:30.757Z,25.07
2018-10-18T20:11:59.318Z,26.50
2018-10-18T20:14:28.075Z,26.03
2018-10-18T20:16:56.495Z,25.90
2018-10-18T20:19:25.115Z,24.10
2018-10-18T20:21:53.502Z,24.23
2018-10-18T20:24:22.091Z,23.70
2018-10-18T20:26:50.448Z,23.63
2018-10-18T20:29:18.761Z,24.37
2018-10-18T20:31:47.254Z,23.80
2018-10-18T20:34:15.571Z,25.17
2018-10-18T20:36:43.994Z,24.53
2018-10-18T20:39:12.733Z,24.00
2018-10-18T20:41:41.140Z,25.03
2018-10-18T20:44:09.617Z,25.00
2018-10-18T20:46:38.408Z,24.70
2018-10-18T20:49:06.719Z,24.13
2018-10-18T20:51:35.070Z,26.60
2018-10-18T20:54:03.709Z,25.10
2018-10-18T20:56:32.128Z,25.30
2018-10-18T20:59:00.541Z,25.33
2018-10-18T21:01:29.026Z,23.77
2018-10-18T21:03:58.372Z,24.53
2018-10-18T21:06:26.708Z,22.80
2018-10-18T21:08:55.122Z,21.90
2018-10-18T21:11:23.433Z,24.17
2018-10-18T21:13:51.807Z,26.10
2018-10-18T21:16:20.329Z,25.93
2018-10-18T21:18:48.678Z,32.47
2018-10-18T21:21:17.007Z,32.50
2018-10-18T21:23:45.736Z,29.60
2018-10-18T21:26:14.031Z,27.37
2018-10-18T21:28:42.385Z,28.17
2018-10-18T21:31:10.963Z,29.47
2018-10-18T21:33:39.427Z,28.00
2018-10-18T21:36:07.719Z,29.47
2018-10-18T21:38:36.115Z,30.13
2018-10-18T21:41:04.540Z,29.83
2018-10-18T21:43:32.854Z,29.40
2018-10-18T21:46:01.245Z,28.10
2018-10-18T21:48:30.207Z,27.83
2018-10-18T21:50:59.238Z,29.80
2018-10-18T21:53:27.801Z,28.73
2018-10-18T21:55:56.182Z,29.43
2018-10-18T21:58:24.757Z,28.40
2018-10-18T22:00:53.478Z,26.40
2018-10-18T22:03:21.835Z,25.87
2018-10-18T22:05:50.207Z,25.27
2018-10-18T22:08:18.619Z,24.90
2018-10-18T22:10:46.938Z,22.10
2018-10-18T22:13:15.219Z,21.97
2018-10-18T22:15:43.708Z,23.57
2018-10-18T22:18:12.017Z,22.23
2018-10-18T22:20:40.313Z,58.33
2018-10-18T22:23:08.781Z,36.43
2018-10-18T22:25:37.127Z,23.73
2018-10-18T22:28:05.948Z,22.53
2018-10-18T22:30:34.336Z,24.60
2018-10-18T22:33:02.717Z,24.97
2018-10-18T22:35:31.169Z,26.23
2018-10-18T22:37:59.600Z,26.17
2018-10-18T22:40:27.917Z,25.13
2018-10-18T22:42:56.315Z,25.70
2018-10-18T22:45:24.787Z,27.23
2018-10-18T22:47:53.166Z,28.30
2018-10-18T22:50:21.556Z,28.57
2018-10-18T22:52:49.997Z,29.13
2018-10-18T22:55:18.381Z,28.77
2018-10-18T22:57:46.690Z,27.83
2018-10-18T23:00:15.264Z,27.47
2018-10-18T23:02:43.629Z,25.80
2018-10-18T23:05:12.197Z,23.33
2018-10-18T23:07:40.472Z,25.93
2018-10-18T23:10:08.937Z,24.43
2018-10-18T23:12:37.265Z,24.73
2018-10-18T23:15:07.836Z,27.20
2018-10-18T23:17:36.249Z,28.90
2018-10-18T23:20:05.041Z,27.07
2018-10-18T23:22:33.461Z,27.90
2018-10-18T23:25:01.760Z,26.37
2018-10-18T23:27:32.875Z,27.67
2018-10-18T23:30:01.239Z,27.60
2018-10-18T23:32:30.629Z,25.03
2018-10-18T23:34:59.359Z,26.70
2018-10-18T23:37:27.905Z,26.23
2018-10-18T23:39:56.267Z,22.73
2018-10-18T23:42:24.638Z,24.87
2018-10-18T23:44:53.098Z,25.33
2018-10-18T23:47:21.372Z,24.13
2018-10-18T23:49:49.677Z,21.47
2018-10-18T23:52:18.115Z,22.33
2018-10-18T23:54:46.535Z,21.67
2018-10-18T23:57:14.919Z,23.00
2018-10-18T23:59:43.381Z,22.00
